sensor_id;sensor_type;location;lat;lon;timestamp;P1;durP1;ratioP1;P2;durP2;ratioP2
64686;SDS011;51113;53.646;-113.674;2023-05-07T00:02:22;9.25;;;1.35;;
64686;SDS011;51113;53.646;-113.674;2023-05-07T00:04:51;6.00;;;1.23;;
64686;SDS011;51113;53.646;-113.674;2023-05-07T00:07:19;3.80;;;1.33;;
64686;SDS011;51113;53.646;-113.674;2023-05-07T00:09:48;4.53;;;1.40;;
64686;SDS011;51113;53.646;-113.674;2023-05-07T00:12:16;5.95;;;1.65;;
64686;SDS011;51113;53.646;-113.674;2023-05-07T00:14:45;5.35;;;1.30;;
64686;SDS011;51113;53.646;-113.674;2023-05-07T00:17:14;5.85;;;1.40;;
64686;SDS011;51113;53.646;-113.674;2023-05-07T00:19:42;8.30;;;1.40;;
64686;SDS011;51113;53.646;-113.674;2023-05-07T00:22:11;4.45;;;1.17;;
64686;SDS011;51113;53.646;-113.674;2023-05-07T00:24:40;7.07;;;1.33;;
64686;SDS011;51113;53.646;-113.674;2023-05-07T00:27:08;6.22;;;1.42;;
64686;SDS011;51113;53.646;-113.674;2023-05-07T00:29:37;5.32;;;1.30;;
64686;SDS011;51113;53.646;-113.674;2023-05-07T00:32:05;9.00;;;1.30;;
64686;SDS011;51113;53.646;-113.674;2023-05-07T00:34:34;3.75;;;1.13;;
64686;SDS011;51113;53.646;-113.674;2023-05-07T00:37:02;9.27;;;1.27;;
64686;SDS011;51113;53.646;-113.674;2023-05-07T00:39:32;8.73;;;1.55;;
64686;SDS011;51113;53.646;-113.674;2023-05-07T00:42:01;3.78;;;1.25;;
64686;SDS011;51113;53.646;-113.674;2023-05-07T00:44:30;4.25;;;1.10;;
64686;SDS011;51113;53.646;-113.674;2023-05-07T00:46:58;6.53;;;1.20;;
64686;SDS011;51113;53.646;-113.674;2023-05-07T00:49:41;5.55;;;1.27;;
64686;SDS011;51113;53.646;-113.674;2023-05-07T00:52:13;4.50;;;1.27;;
64686;SDS011;51113;53.646;-113.674;2023-05-07T00:54:43;7.32;;;1.20;;
64686;SDS011;51113;53.646;-113.674;2023-05-07T00:57:12;4.85;;;1.40;;
64686;SDS011;51113;53.646;-113.674;2023-05-07T00:59:42;10.77;;;1.23;;
64686;SDS011;51113;53.646;-113.674;2023-05-07T01:02:11;4.88;;;1.17;;
64686;SDS011;51113;53.646;-113.674;2023-05-07T01:04:40;5.55;;;1.20;;
64686;SDS011;51113;53.646;-113.674;2023-05-07T01:07:09;4.20;;;1.23;;
64686;SDS011;51113;53.646;-113.674;2023-05-07T01:09:38;3.38;;;1.25;;
64686;SDS011;51113;53.646;-113.674;2023-05-07T01:12:07;4.43;;;1.20;;
64686;SDS011;51113;53.646;-113.674;2023-05-07T01:14:36;3.30;;;1.23;;
64686;SDS011;51113;53.646;-113.674;2023-05-07T01:17:05;5.43;;;1.45;;
64686;SDS011;51113;53.646;-113.674;2023-05-07T01:19:34;9.30;;;1.58;;
64686;SDS011;51113;53.646;-113.674;2023-05-07T01:22:07;10.63;;;1.50;;
64686;SDS011;51113;53.646;-113.674;2023-05-07T01:24:38;6.93;;;1.60;;
64686;SDS011;51113;53.646;-113.674;2023-05-07T01:27:06;9.10;;;1.80;;
64686;SDS011;51113;53.646;-113.674;2023-05-07T01:29:35;2.90;;;1.40;;
64686;SDS011;51113;53.646;-113.674;2023-05-07T01:32:04;6.72;;;1.40;;
64686;SDS011;51113;53.646;-113.674;2023-05-07T01:34:33;4.03;;;1.20;;
64686;SDS011;51113;53.646;-113.674;2023-05-07T01:37:04;3.88;;;1.15;;
64686;SDS011;51113;53.646;-113.674;2023-05-07T01:39:35;7.50;;;1.10;;
64686;SDS011;51113;53.646;-113.674;2023-05-07T01:42:07;3.63;;;1.10;;
64686;SDS011;51113;53.646;-113.674;2023-05-07T01:44:35;2.95;;;1.10;;
64686;SDS011;51113;53.646;-113.674;2023-05-07T01:47:04;4.15;;;1.00;;
64686;SDS011;51113;53.646;-113.674;2023-05-07T01:49:33;10.02;;;1.55;;
64686;SDS011;51113;53.646;-113.674;2023-05-07T01:52:02;7.57;;;1.30;;
64686;SDS011;51113;53.646;-113.674;2023-05-07T01:54:31;2.92;;;1.00;;
64686;SDS011;51113;53.646;-113.674;2023-05-07T01:57:00;4.43;;;1.20;;
64686;SDS011;51113;53.646;-113.674;2023-05-07T01:59:28;4.53;;;1.08;;
64686;SDS011;51113;53.646;-113.674;2023-05-07T02:01:57;10.65;;;1.10;;
64686;SDS011;51113;53.646;-113.674;2023-05-07T02:04:26;2.53;;;0.93;;
64686;SDS011;51113;53.646;-113.674;2023-05-07T02:06:54;2.53;;;1.10;;
64686;SDS011;51113;53.646;-113.674;2023-05-07T02:09:23;2.80;;;1.13;;
64686;SDS011;51113;53.646;-113.674;2023-05-07T02:11:51;8.65;;;1.17;;
64686;SDS011;51113;53.646;-113.674;2023-05-07T02:14:19;3.55;;;1.05;;
64686;SDS011;51113;53.646;-113.674;2023-05-07T02:16:48;3.33;;;1.13;;
64686;SDS011;51113;53.646;-113.674;2023-05-07T02:19:16;12.15;;;1.25;;
64686;SDS011;51113;53.646;-113.674;2023-05-07T02:21:45;5.78;;;1.10;;
64686;SDS011;51113;53.646;-113.674;2023-05-07T02:24:14;4.45;;;1.23;;
64686;SDS011;51113;53.646;-113.674;2023-05-07T02:26:43;6.35;;;1.42;;
64686;SDS011;51113;53.646;-113.674;2023-05-07T02:29:11;2.92;;;1.13;;
64686;SDS011;51113;53.646;-113.674;2023-05-07T02:31:40;5.65;;;1.02;;
64686;SDS011;51113;53.646;-113.674;2023-05-07T02:34:09;4.95;;;1.08;;
64686;SDS011;51113;53.646;-113.674;2023-05-07T02:36:37;8.32;;;1.42;;
64686;SDS011;51113;53.646;-113.674;2023-05-07T02:39:06;7.03;;;1.02;;
64686;SDS011;51113;53.646;-113.674;2023-05-07T02:41:34;5.55;;;1.10;;
64686;SDS011;51113;53.646;-113.674;2023-05-07T02:44:03;2.63;;;1.10;;
64686;SDS011;51113;53.646;-113.674;2023-05-07T02:46:32;2.17;;;1.10;;
64686;SDS011;51113;53.646;-113.674;2023-05-07T02:49:01;4.07;;;1.45;;
64686;SDS011;51113;53.646;-113.674;2023-05-07T02:51:29;4.82;;;1.20;;
64686;SDS011;51113;53.646;-113.674;2023-05-07T02:53:58;6.22;;;1.20;;
64686;SDS011;51113;53.646;-113.674;2023-05-07T02:56:28;5.75;;;1.30;;
64686;SDS011;51113;53.646;-113.674;2023-05-07T02:58:56;3.97;;;1.00;;
64686;SDS011;51113;53.646;-113.674;2023-05-07T03:01:25;5.18;;;1.30;;
64686;SDS011;51113;53.646;-113.674;2023-05-07T03:03:54;4.15;;;1.10;;
64686;SDS011;51113;53.646;-113.674;2023-05-07T03:06:23;2.95;;;1.05;;
64686;SDS011;51113;53.646;-113.674;2023-05-07T03:08:51;4.85;;;1.15;;
64686;SDS011;51113;53.646;-113.674;2023-05-07T03:11:20;8.55;;;1.15;;
64686;SDS011;51113;53.646;-113.674;2023-05-07T03:13:48;6.60;;;1.20;;
64686;SDS011;51113;53.646;-113.674;2023-05-07T03:16:17;3.72;;;1.08;;
64686;SDS011;51113;53.646;-113.674;2023-05-07T03:18:46;4.03;;;0.90;;
64686;SDS011;51113;53.646;-113.674;2023-05-07T03:21:15;6.32;;;1.08;;
64686;SDS011;51113;53.646;-113.674;2023-05-07T03:23:44;4.50;;;1.20;;
64686;SDS011;51113;53.646;-113.674;2023-05-07T03:26:12;7.30;;;1.30;;
64686;SDS011;51113;53.646;-113.674;2023-05-07T03:28:41;4.93;;;1.10;;
64686;SDS011;51113;53.646;-113.674;2023-05-07T03:31:09;10.43;;;1.30;;
64686;SDS011;51113;53.646;-113.674;2023-05-07T03:33:47;15.93;;;1.52;;
64686;SDS011;51113;53.646;-113.674;2023-05-07T03:36:21;4.27;;;1.17;;
64686;SDS011;51113;53.646;-113.674;2023-05-07T03:38:51;5.35;;;1.10;;
64686;SDS011;51113;53.646;-113.674;2023-05-07T03:41:20;5.15;;;1.17;;
64686;SDS011;51113;53.646;-113.674;2023-05-07T03:43:48;6.25;;;1.17;;
64686;SDS011;51113;53.646;-113.674;2023-05-07T03:46:17;4.50;;;1.05;;
64686;SDS011;51113;53.646;-113.674;2023-05-07T03:48:45;5.38;;;1.02;;
64686;SDS011;51113;53.646;-113.674;2023-05-07T03:51:14;6.32;;;1.30;;
64686;SDS011;51113;53.646;-113.674;2023-05-07T03:53:43;6.95;;;2.05;;
64686;SDS011;51113;53.646;-113.674;2023-05-07T03:56:11;4.72;;;1.48;;
64686;SDS011;51113;53.646;-113.674;2023-05-07T03:58:39;5.07;;;1.40;;
64686;SDS011;51113;53.646;-113.674;2023-05-07T04:01:08;5.35;;;1.40;;
64686;SDS011;51113;53.646;-113.674;2023-05-07T04:03:37;10.43;;;1.85;;
64686;SDS011;51113;53.646;-113.674;2023-05-07T04:06:06;3.75;;;1.00;;
64686;SDS011;51113;53.646;-113.674;2023-05-07T04:08:34;9.18;;;1.40;;
64686;SDS011;51113;53.646;-113.674;2023-05-07T04:11:02;5.18;;;1.15;;
64686;SDS011;51113;53.646;-113.674;2023-05-07T04:13:32;5.78;;;1.02;;
64686;SDS011;51113;53.646;-113.674;2023-05-07T04:16:01;4.90;;;1.50;;
64686;SDS011;51113;53.646;-113.674;2023-05-07T04:18:31;6.90;;;0.95;;
64686;SDS011;51113;53.646;-113.674;2023-05-07T04:20:59;5.45;;;1.20;;
64686;SDS011;51113;53.646;-113.674;2023-05-07T04:23:28;5.72;;;1.00;;
64686;SDS011;51113;53.646;-113.674;2023-05-07T04:25:56;5.47;;;1.17;;
64686;SDS011;51113;53.646;-113.674;2023-05-07T04:28:25;7.75;;;1.25;;
64686;SDS011;51113;53.646;-113.674;2023-05-07T04:30:54;2.83;;;1.13;;
64686;SDS011;51113;53.646;-113.674;2023-05-07T04:33:22;2.97;;;1.00;;
64686;SDS011;51113;53.646;-113.674;2023-05-07T04:35:51;4.22;;;1.00;;
64686;SDS011;51113;53.646;-113.674;2023-05-07T04:38:19;6.90;;;0.90;;
64686;SDS011;51113;53.646;-113.674;2023-05-07T04:40:48;8.52;;;0.98;;
64686;SDS011;51113;53.646;-113.674;2023-05-07T04:43:17;3.65;;;1.00;;
64686;SDS011;51113;53.646;-113.674;2023-05-07T04:45:46;6.85;;;1.10;;
64686;SDS011;51113;53.646;-113.674;2023-05-07T04:48:16;6.80;;;1.00;;
64686;SDS011;51113;53.646;-113.674;2023-05-07T04:50:48;9.95;;;1.20;;
64686;SDS011;51113;53.646;-113.674;2023-05-07T04:53:17;3.03;;;1.08;;
64686;SDS011;51113;53.646;-113.674;2023-05-07T04:55:46;10.30;;;1.40;;
64686;SDS011;51113;53.646;-113.674;2023-05-07T04:58:15;4.38;;;1.13;;
64686;SDS011;51113;53.646;-113.674;2023-05-07T05:00:43;2.60;;;1.00;;
64686;SDS011;51113;53.646;-113.674;2023-05-07T05:03:12;1.38;;;1.00;;
64686;SDS011;51113;53.646;-113.674;2023-05-07T05:05:40;1.83;;;1.10;;
64686;SDS011;51113;53.646;-113.674;2023-05-07T05:08:09;5.18;;;1.10;;
64686;SDS011;51113;53.646;-113.674;2023-05-07T05:10:38;4.47;;;1.13;;
64686;SDS011;51113;53.646;-113.674;2023-05-07T05:13:07;8.70;;;1.10;;
64686;SDS011;51113;53.646;-113.674;2023-05-07T05:15:35;10.43;;;1.10;;
64686;SDS011;51113;53.646;-113.674;2023-05-07T05:18:04;7.80;;;1.38;;
64686;SDS011;51113;53.646;-113.674;2023-05-07T05:20:33;5.18;;;1.00;;
64686;SDS011;51113;53.646;-113.674;2023-05-07T05:23:02;1.73;;;1.08;;
64686;SDS011;51113;53.646;-113.674;2023-05-07T05:25:31;6.40;;;1.20;;
64686;SDS011;51113;53.646;-113.674;2023-05-07T05:27:59;7.97;;;1.30;;
64686;SDS011;51113;53.646;-113.674;2023-05-07T05:30:28;3.55;;;1.00;;
64686;SDS011;51113;53.646;-113.674;2023-05-07T05:32:57;4.10;;;1.17;;
64686;SDS011;51113;53.646;-113.674;2023-05-07T05:35:25;2.40;;;1.00;;
64686;SDS011;51113;53.646;-113.674;2023-05-07T05:37:54;7.68;;;1.20;;
64686;SDS011;51113;53.646;-113.674;2023-05-07T05:40:22;3.55;;;1.20;;
64686;SDS011;51113;53.646;-113.674;2023-05-07T05:42:51;2.75;;;1.00;;
64686;SDS011;51113;53.646;-113.674;2023-05-07T05:45:21;4.93;;;0.98;;
64686;SDS011;51113;53.646;-113.674;2023-05-07T05:47:49;7.55;;;1.23;;
64686;SDS011;51113;53.646;-113.674;2023-05-07T05:50:18;6.45;;;1.10;;
64686;SDS011;51113;53.646;-113.674;2023-05-07T05:52:47;6.15;;;1.50;;
64686;SDS011;51113;53.646;-113.674;2023-05-07T05:55:15;5.57;;;1.42;;
64686;SDS011;51113;53.646;-113.674;2023-05-07T05:57:44;9.43;;;1.27;;
64686;SDS011;51113;53.646;-113.674;2023-05-07T06:00:13;3.28;;;1.17;;
64686;SDS011;51113;53.646;-113.674;2023-05-07T06:02:43;8.13;;;1.30;;
64686;SDS011;51113;53.646;-113.674;2023-05-07T06:05:12;2.83;;;1.10;;
64686;SDS011;51113;53.646;-113.674;2023-05-07T06:07:40;7.22;;;1.02;;
64686;SDS011;51113;53.646;-113.674;2023-05-07T06:10:09;6.40;;;1.10;;
64686;SDS011;51113;53.646;-113.674;2023-05-07T06:12:37;7.80;;;1.60;;
64686;SDS011;51113;53.646;-113.674;2023-05-07T06:15:06;3.35;;;1.20;;
64686;SDS011;51113;53.646;-113.674;2023-05-07T06:17:35;9.13;;;1.33;;
64686;SDS011;51113;53.646;-113.674;2023-05-07T06:20:03;5.50;;;1.50;;
64686;SDS011;51113;53.646;-113.674;2023-05-07T06:22:34;5.35;;;1.10;;
64686;SDS011;51113;53.646;-113.674;2023-05-07T06:25:03;3.65;;;1.10;;
64686;SDS011;51113;53.646;-113.674;2023-05-07T06:27:33;1.88;;;1.05;;
64686;SDS011;51113;53.646;-113.674;2023-05-07T06:30:03;3.42;;;1.10;;
64686;SDS011;51113;53.646;-113.674;2023-05-07T06:32:32;2.75;;;1.05;;
64686;SDS011;51113;53.646;-113.674;2023-05-07T06:35:01;5.97;;;1.48;;
64686;SDS011;51113;53.646;-113.674;2023-05-07T06:37:29;3.50;;;1.20;;
64686;SDS011;51113;53.646;-113.674;2023-05-07T06:39:58;5.53;;;1.10;;
64686;SDS011;51113;53.646;-113.674;2023-05-07T06:42:26;3.35;;;1.10;;
64686;SDS011;51113;53.646;-113.674;2023-05-07T06:44:54;5.72;;;1.27;;
64686;SDS011;51113;53.646;-113.674;2023-05-07T06:47:24;3.90;;;1.27;;
64686;SDS011;51113;53.646;-113.674;2023-05-07T06:49:52;2.85;;;1.00;;
64686;SDS011;51113;53.646;-113.674;2023-05-07T06:52:22;2.72;;;1.15;;
64686;SDS011;51113;53.646;-113.674;2023-05-07T06:54:51;5.28;;;1.25;;
64686;SDS011;51113;53.646;-113.674;2023-05-07T06:57:19;3.90;;;1.25;;
64686;SDS011;51113;53.646;-113.674;2023-05-07T06:59:49;3.67;;;1.30;;
64686;SDS011;51113;53.646;-113.674;2023-05-07T07:02:17;3.83;;;1.30;;
64686;SDS011;51113;53.646;-113.674;2023-05-07T07:04:46;6.20;;;1.10;;
64686;SDS011;51113;53.646;-113.674;2023-05-07T07:07:15;4.40;;;1.05;;
64686;SDS011;51113;53.646;-113.674;2023-05-07T07:09:43;1.73;;;1.20;;
64686;SDS011;51113;53.646;-113.674;2023-05-07T07:12:12;2.22;;;1.05;;
64686;SDS011;51113;53.646;-113.674;2023-05-07T07:14:41;3.33;;;1.10;;
64686;SDS011;51113;53.646;-113.674;2023-05-07T07:17:09;5.75;;;1.13;;
64686;SDS011;51113;53.646;-113.674;2023-05-07T07:19:38;4.18;;;1.27;;
64686;SDS011;51113;53.646;-113.674;2023-05-07T07:22:07;2.85;;;1.08;;
64686;SDS011;51113;53.646;-113.674;2023-05-07T07:24:36;2.88;;;1.23;;
64686;SDS011;51113;53.646;-113.674;2023-05-07T07:27:05;4.68;;;1.17;;
64686;SDS011;51113;53.646;-113.674;2023-05-07T07:29:34;3.95;;;1.20;;
64686;SDS011;51113;53.646;-113.674;2023-05-07T07:32:02;6.90;;;1.50;;
64686;SDS011;51113;53.646;-113.674;2023-05-07T07:34:31;5.65;;;1.20;;
64686;SDS011;51113;53.646;-113.674;2023-05-07T07:37:00;1.35;;;1.08;;
64686;SDS011;51113;53.646;-113.674;2023-05-07T07:39:33;1.80;;;1.10;;
64686;SDS011;51113;53.646;-113.674;2023-05-07T07:42:01;1.35;;;1.00;;
64686;SDS011;51113;53.646;-113.674;2023-05-07T07:44:30;3.05;;;1.17;;
64686;SDS011;51113;53.646;-113.674;2023-05-07T07:46:58;3.50;;;1.10;;
64686;SDS011;51113;53.646;-113.674;2023-05-07T07:49:27;4.38;;;1.02;;
64686;SDS011;51113;53.646;-113.674;2023-05-07T07:51:56;1.77;;;1.10;;
64686;SDS011;51113;53.646;-113.674;2023-05-07T07:54:27;3.40;;;1.10;;
64686;SDS011;51113;53.646;-113.674;2023-05-07T07:56:57;3.50;;;1.10;;
64686;SDS011;51113;53.646;-113.674;2023-05-07T07:59:25;6.07;;;1.38;;
64686;SDS011;51113;53.646;-113.674;2023-05-07T08:01:55;5.28;;;1.13;;
64686;SDS011;51113;53.646;-113.674;2023-05-07T08:04:24;2.60;;;1.10;;
64686;SDS011;51113;53.646;-113.674;2023-05-07T08:06:53;1.63;;;1.10;;
64686;SDS011;51113;53.646;-113.674;2023-05-07T08:09:22;5.55;;;1.20;;
64686;SDS011;51113;53.646;-113.674;2023-05-07T08:11:50;2.25;;;1.20;;
64686;SDS011;51113;53.646;-113.674;2023-05-07T08:14:18;2.35;;;1.15;;
64686;SDS011;51113;53.646;-113.674;2023-05-07T08:16:47;3.10;;;1.25;;
64686;SDS011;51113;53.646;-113.674;2023-05-07T08:19:16;4.30;;;1.00;;
64686;SDS011;51113;53.646;-113.674;2023-05-07T08:21:44;4.25;;;1.00;;
64686;SDS011;51113;53.646;-113.674;2023-05-07T08:24:15;4.22;;;1.17;;
64686;SDS011;51113;53.646;-113.674;2023-05-07T08:26:44;6.53;;;1.30;;
64686;SDS011;51113;53.646;-113.674;2023-05-07T08:29:13;1.98;;;1.10;;
64686;SDS011;51113;53.646;-113.674;2023-05-07T08:31:41;2.33;;;1.15;;
64686;SDS011;51113;53.646;-113.674;2023-05-07T08:34:10;3.83;;;1.17;;
64686;SDS011;51113;53.646;-113.674;2023-05-07T08:36:38;5.10;;;1.33;;
64686;SDS011;51113;53.646;-113.674;2023-05-07T08:39:09;4.03;;;1.10;;
64686;SDS011;51113;53.646;-113.674;2023-05-07T08:41:37;1.85;;;0.90;;
64686;SDS011;51113;53.646;-113.674;2023-05-07T08:44:07;2.42;;;1.20;;
64686;SDS011;51113;53.646;-113.674;2023-05-07T08:46:41;5.03;;;1.20;;
64686;SDS011;51113;53.646;-113.674;2023-05-07T08:49:11;3.90;;;1.17;;
64686;SDS011;51113;53.646;-113.674;2023-05-07T08:51:39;2.95;;;1.20;;
64686;SDS011;51113;53.646;-113.674;2023-05-07T08:54:09;3.30;;;1.10;;
64686;SDS011;51113;53.646;-113.674;2023-05-07T08:56:39;5.22;;;1.23;;
64686;SDS011;51113;53.646;-113.674;2023-05-07T08:59:08;4.25;;;1.30;;
64686;SDS011;51113;53.646;-113.674;2023-05-07T09:01:37;11.02;;;1.50;;
64686;SDS011;51113;53.646;-113.674;2023-05-07T09:04:06;8.38;;;1.40;;
64686;SDS011;51113;53.646;-113.674;2023-05-07T09:06:35;1.35;;;1.25;;
64686;SDS011;51113;53.646;-113.674;2023-05-07T09:09:05;7.45;;;1.50;;
64686;SDS011;51113;53.646;-113.674;2023-05-07T09:11:33;5.03;;;1.73;;
64686;SDS011;51113;53.646;-113.674;2023-05-07T09:14:02;5.07;;;1.60;;
64686;SDS011;51113;53.646;-113.674;2023-05-07T09:16:33;8.57;;;1.83;;
64686;SDS011;51113;53.646;-113.674;2023-05-07T09:19:02;6.22;;;1.73;;
64686;SDS011;51113;53.646;-113.674;2023-05-07T09:21:31;11.27;;;1.90;;
64686;SDS011;51113;53.646;-113.674;2023-05-07T09:24:00;4.57;;;1.75;;
64686;SDS011;51113;53.646;-113.674;2023-05-07T09:26:29;6.75;;;2.00;;
64686;SDS011;51113;53.646;-113.674;2023-05-07T09:28:59;3.25;;;1.80;;
64686;SDS011;51113;53.646;-113.674;2023-05-07T09:31:27;6.47;;;1.92;;
64686;SDS011;51113;53.646;-113.674;2023-05-07T09:33:57;6.93;;;2.00;;
64686;SDS011;51113;53.646;-113.674;2023-05-07T09:36:25;3.05;;;1.55;;
64686;SDS011;51113;53.646;-113.674;2023-05-07T09:38:55;4.18;;;1.70;;
64686;SDS011;51113;53.646;-113.674;2023-05-07T09:41:24;3.97;;;2.00;;
64686;SDS011;51113;53.646;-113.674;2023-05-07T09:43:53;4.53;;;1.90;;
64686;SDS011;51113;53.646;-113.674;2023-05-07T09:46:28;5.05;;;1.92;;
64686;SDS011;51113;53.646;-113.674;2023-05-07T09:48:59;3.85;;;2.08;;
64686;SDS011;51113;53.646;-113.674;2023-05-07T09:51:41;4.20;;;1.73;;
64686;SDS011;51113;53.646;-113.674;2023-05-07T09:54:15;6.50;;;2.05;;
64686;SDS011;51113;53.646;-113.674;2023-05-07T09:56:45;5.20;;;2.13;;
64686;SDS011;51113;53.646;-113.674;2023-05-07T09:59:16;3.47;;;2.00;;
64686;SDS011;51113;53.646;-113.674;2023-05-07T10:01:45;3.53;;;2.00;;
64686;SDS011;51113;53.646;-113.674;2023-05-07T10:04:13;4.60;;;2.00;;
64686;SDS011;51113;53.646;-113.674;2023-05-07T10:06:42;5.80;;;2.25;;
64686;SDS011;51113;53.646;-113.674;2023-05-07T10:09:12;4.32;;;2.13;;
64686;SDS011;51113;53.646;-113.674;2023-05-07T10:11:43;6.45;;;2.10;;
64686;SDS011;51113;53.646;-113.674;2023-05-07T10:14:14;5.13;;;2.40;;
64686;SDS011;51113;53.646;-113.674;2023-05-07T10:16:43;5.35;;;2.25;;
64686;SDS011;51113;53.646;-113.674;2023-05-07T10:19:12;3.53;;;1.83;;
64686;SDS011;51113;53.646;-113.674;2023-05-07T10:21:51;7.72;;;2.60;;
64686;SDS011;51113;53.646;-113.674;2023-05-07T10:24:29;3.83;;;2.28;;
64686;SDS011;51113;53.646;-113.674;2023-05-07T10:27:04;3.13;;;2.10;;
64686;SDS011;51113;53.646;-113.674;2023-05-07T10:35:02;4.53;;;2.10;;
64686;SDS011;51113;53.646;-113.674;2023-05-07T10:37:35;3.47;;;2.10;;
64686;SDS011;51113;53.646;-113.674;2023-05-07T10:40:05;7.50;;;2.10;;
64686;SDS011;51113;53.646;-113.674;2023-05-07T10:42:34;5.15;;;2.45;;
64686;SDS011;51113;53.646;-113.674;2023-05-07T10:45:12;4.78;;;2.00;;
64686;SDS011;51113;53.646;-113.674;2023-05-07T10:51:41;13.23;;;2.95;;
64686;SDS011;51113;53.646;-113.674;2023-05-07T10:53:48;7.07;;;2.50;;
64686;SDS011;51113;53.646;-113.674;2023-05-07T10:56:40;3.25;;;2.30;;
64686;SDS011;51113;53.646;-113.674;2023-05-07T11:04:25;3.35;;;2.15;;
64686;SDS011;51113;53.646;-113.674;2023-05-07T11:15:11;5.55;;;2.63;;
64686;SDS011;51113;53.646;-113.674;2023-05-07T11:17:53;3.88;;;2.10;;
64686;SDS011;51113;53.646;-113.674;2023-05-07T11:26:06;3.65;;;2.28;;
64686;SDS011;51113;53.646;-113.674;2023-05-07T11:28:42;5.60;;;2.35;;
64686;SDS011;51113;53.646;-113.674;2023-05-07T11:31:11;3.72;;;2.30;;
64686;SDS011;51113;53.646;-113.674;2023-05-07T11:33:40;4.15;;;2.40;;
64686;SDS011;51113;53.646;-113.674;2023-05-07T11:36:09;6.20;;;2.30;;
64686;SDS011;51113;53.646;-113.674;2023-05-07T11:38:38;5.32;;;2.20;;
64686;SDS011;51113;53.646;-113.674;2023-05-07T11:41:07;6.85;;;2.40;;
64686;SDS011;51113;53.646;-113.674;2023-05-07T11:43:36;5.85;;;2.50;;
64686;SDS011;51113;53.646;-113.674;2023-05-07T11:46:08;6.05;;;2.38;;
64686;SDS011;51113;53.646;-113.674;2023-05-07T11:48:38;6.28;;;2.47;;
64686;SDS011;51113;53.646;-113.674;2023-05-07T11:51:07;5.45;;;2.45;;
64686;SDS011;51113;53.646;-113.674;2023-05-07T11:53:45;3.63;;;2.00;;
64686;SDS011;51113;53.646;-113.674;2023-05-07T11:56:14;2.50;;;2.08;;
64686;SDS011;51113;53.646;-113.674;2023-05-07T11:58:44;4.97;;;2.38;;
64686;SDS011;51113;53.646;-113.674;2023-05-07T12:01:15;7.07;;;2.50;;
64686;SDS011;51113;53.646;-113.674;2023-05-07T12:03:44;6.00;;;2.53;;
64686;SDS011;51113;53.646;-113.674;2023-05-07T12:06:15;4.38;;;2.30;;
64686;SDS011;51113;53.646;-113.674;2023-05-07T12:08:45;4.72;;;2.38;;
64686;SDS011;51113;53.646;-113.674;2023-05-07T12:11:22;5.30;;;2.10;;
64686;SDS011;51113;53.646;-113.674;2023-05-07T12:13:53;5.38;;;2.35;;
64686;SDS011;51113;53.646;-113.674;2023-05-07T12:16:25;5.18;;;2.60;;
64686;SDS011;51113;53.646;-113.674;2023-05-07T12:18:55;5.05;;;2.20;;
64686;SDS011;51113;53.646;-113.674;2023-05-07T12:21:26;3.80;;;2.20;;
64686;SDS011;51113;53.646;-113.674;2023-05-07T12:23:55;4.20;;;2.10;;
64686;SDS011;51113;53.646;-113.674;2023-05-07T12:26:24;4.20;;;2.10;;
64686;SDS011;51113;53.646;-113.674;2023-05-07T12:28:53;6.32;;;2.65;;
64686;SDS011;51113;53.646;-113.674;2023-05-07T12:31:22;3.05;;;2.15;;
64686;SDS011;51113;53.646;-113.674;2023-05-07T12:33:53;2.95;;;2.00;;
64686;SDS011;51113;53.646;-113.674;2023-05-07T12:36:22;4.03;;;2.00;;
64686;SDS011;51113;53.646;-113.674;2023-05-07T12:38:50;3.35;;;2.22;;
64686;SDS011;51113;53.646;-113.674;2023-05-07T12:41:19;3.67;;;1.70;;
64686;SDS011;51113;53.646;-113.674;2023-05-07T12:43:55;2.95;;;2.00;;
64686;SDS011;51113;53.646;-113.674;2023-05-07T12:46:25;4.57;;;2.33;;
64686;SDS011;51113;53.646;-113.674;2023-05-07T12:48:53;6.60;;;2.33;;
64686;SDS011;51113;53.646;-113.674;2023-05-07T12:51:21;4.68;;;2.20;;
64686;SDS011;51113;53.646;-113.674;2023-05-07T12:53:50;5.53;;;2.05;;
64686;SDS011;51113;53.646;-113.674;2023-05-07T12:56:23;5.38;;;2.42;;
64686;SDS011;51113;53.646;-113.674;2023-05-07T12:58:56;2.78;;;2.05;;
64686;SDS011;51113;53.646;-113.674;2023-05-07T13:01:30;3.75;;;2.15;;
64686;SDS011;51113;53.646;-113.674;2023-05-07T13:04:05;4.70;;;2.30;;
64686;SDS011;51113;53.646;-113.674;2023-05-07T13:06:35;5.05;;;2.30;;
64686;SDS011;51113;53.646;-113.674;2023-05-07T13:09:03;3.80;;;2.15;;
64686;SDS011;51113;53.646;-113.674;2023-05-07T13:11:33;4.47;;;2.20;;
64686;SDS011;51113;53.646;-113.674;2023-05-07T13:14:02;6.63;;;2.30;;
64686;SDS011;51113;53.646;-113.674;2023-05-07T13:16:30;3.80;;;2.40;;
64686;SDS011;51113;53.646;-113.674;2023-05-07T13:18:59;4.28;;;2.40;;
64686;SDS011;51113;53.646;-113.674;2023-05-07T13:21:27;5.60;;;2.70;;
64686;SDS011;51113;53.646;-113.674;2023-05-07T13:23:55;4.20;;;2.13;;
64686;SDS011;51113;53.646;-113.674;2023-05-07T13:26:26;3.20;;;2.58;;
64686;SDS011;51113;53.646;-113.674;2023-05-07T13:28:54;3.03;;;2.22;;
64686;SDS011;51113;53.646;-113.674;2023-05-07T13:31:23;4.47;;;2.38;;
64686;SDS011;51113;53.646;-113.674;2023-05-07T13:33:54;7.15;;;2.80;;
64686;SDS011;51113;53.646;-113.674;2023-05-07T13:36:23;7.50;;;2.60;;
64686;SDS011;51113;53.646;-113.674;2023-05-07T13:38:53;3.40;;;2.40;;
64686;SDS011;51113;53.646;-113.674;2023-05-07T13:41:21;4.60;;;2.50;;
64686;SDS011;51113;53.646;-113.674;2023-05-07T13:43:49;5.13;;;2.50;;
64686;SDS011;51113;53.646;-113.674;2023-05-07T13:46:17;8.93;;;2.90;;
64686;SDS011;51113;53.646;-113.674;2023-05-07T13:48:47;3.95;;;2.70;;
64686;SDS011;51113;53.646;-113.674;2023-05-07T13:51:15;3.50;;;2.67;;
64686;SDS011;51113;53.646;-113.674;2023-05-07T13:53:44;4.15;;;2.47;;
64686;SDS011;51113;53.646;-113.674;2023-05-07T13:56:13;6.05;;;2.60;;
64686;SDS011;51113;53.646;-113.674;2023-05-07T13:58:43;3.75;;;2.50;;
64686;SDS011;51113;53.646;-113.674;2023-05-07T14:01:25;4.57;;;2.70;;
64686;SDS011;51113;53.646;-113.674;2023-05-07T14:03:57;4.68;;;2.50;;
64686;SDS011;51113;53.646;-113.674;2023-05-07T14:06:27;5.55;;;2.60;;
64686;SDS011;51113;53.646;-113.674;2023-05-07T14:08:55;3.70;;;2.47;;
64686;SDS011;51113;53.646;-113.674;2023-05-07T14:11:25;3.88;;;2.47;;
64686;SDS011;51113;53.646;-113.674;2023-05-07T14:13:54;4.65;;;2.40;;
64686;SDS011;51113;53.646;-113.674;2023-05-07T14:16:24;4.68;;;2.90;;
64686;SDS011;51113;53.646;-113.674;2023-05-07T14:18:53;6.88;;;2.90;;
64686;SDS011;51113;53.646;-113.674;2023-05-07T14:21:23;4.28;;;2.35;;
64686;SDS011;51113;53.646;-113.674;2023-05-07T14:23:52;3.97;;;2.28;;
64686;SDS011;51113;53.646;-113.674;2023-05-07T14:26:21;5.80;;;2.50;;
64686;SDS011;51113;53.646;-113.674;2023-05-07T14:28:50;4.43;;;2.22;;
64686;SDS011;51113;53.646;-113.674;2023-05-07T14:31:19;3.97;;;2.33;;
64686;SDS011;51113;53.646;-113.674;2023-05-07T14:33:48;4.65;;;2.30;;
64686;SDS011;51113;53.646;-113.674;2023-05-07T14:36:19;4.22;;;2.40;;
64686;SDS011;51113;53.646;-113.674;2023-05-07T14:38:48;3.90;;;2.35;;
64686;SDS011;51113;53.646;-113.674;2023-05-07T14:41:17;6.32;;;2.50;;
64686;SDS011;51113;53.646;-113.674;2023-05-07T14:43:46;6.78;;;2.03;;
64686;SDS011;51113;53.646;-113.674;2023-05-07T14:46:17;3.70;;;2.30;;
64686;SDS011;51113;53.646;-113.674;2023-05-07T14:48:46;4.50;;;2.50;;
64686;SDS011;51113;53.646;-113.674;2023-05-07T14:51:15;4.78;;;1.90;;